createdAt,value
2023-04-14T00:04:11.573Z,98589.19
2023-04-14T00:14:13.105Z,98591.66
2023-04-14T00:24:14.699Z,98604.03
2023-04-14T00:34:16.260Z,98604.66
2023-04-14T00:44:17.724Z,98618.06
2023-04-14T00:54:20.266Z,98628.19
2023-04-14T01:04:21.943Z,98637.03
2023-04-14T01:15:02.114Z,98644.88
2023-04-14T01:25:09.660Z,98644.88
2023-04-14T01:35:13.413Z,98646.94
2023-04-14T01:45:23.592Z,98642.78
2023-04-14T01:55:26.735Z,98645.22
2023-04-14T02:05:28.230Z,98642.34
2023-04-14T02:15:29.728Z,98645.44
2023-04-14T02:25:32.400Z,98646.66
2023-04-14T02:35:46.056Z,98636.34
2023-04-14T02:45:49.150Z,98653.63
2023-04-14T02:55:51.844Z,98655.91
2023-04-14T03:05:53.231Z,98663.72
2023-04-14T03:15:55.953Z,98664.13
2023-04-14T03:25:57.384Z,98655.47
2023-04-14T03:35:58.826Z,98655.84
2023-04-14T03:46:00.468Z,98670.44
2023-04-14T03:56:02.481Z,98680.97
2023-04-14T04:06:04.023Z,98689.59
2023-04-14T04:16:05.850Z,98685.44
2023-04-14T04:26:07.828Z,98675.25
2023-04-14T04:36:09.245Z,98684.00
2023-04-14T04:46:38.179Z,98689.03
2023-04-14T04:56:39.791Z,98697.09
2023-04-14T05:06:41.300Z,98704.72
2023-04-14T05:16:42.692Z,98707.22
2023-04-14T05:27:01.534Z,98704.94
2023-04-14T05:37:05.477Z,98708.03
2023-04-14T05:47:06.949Z,98702.84
2023-04-14T05:57:08.379Z,98710.91
2023-04-14T06:07:09.779Z,98704.06
2023-04-14T06:17:11.175Z,98695.59
2023-04-14T06:27:12.759Z,98695.53
2023-04-14T06:37:15.084Z,98696.84
2023-04-14T06:47:20.781Z,98692.25
2023-04-14T06:57:29.730Z,98694.66
2023-04-14T07:07:37.455Z,98684.41
2023-04-14T07:17:39.075Z,98682.38
2023-04-14T07:27:49.783Z,98680.63
2023-04-14T07:37:57.868Z,98657.16
2023-04-14T07:47:59.443Z,98657.41
2023-04-14T07:58:01.385Z,98662.34
2023-04-14T08:08:03.245Z,98656.59
2023-04-14T08:18:05.318Z,98656.25
2023-04-14T08:28:07.018Z,98662.34
2023-04-14T08:38:08.639Z,98655.09
2023-04-14T08:48:10.199Z,98653.88
2023-04-14T08:58:11.774Z,98654.47
2023-04-14T09:08:13.644Z,98643.78
2023-04-14T09:18:15.059Z,98638.53
2023-04-14T09:28:16.609Z,98638.28
2023-04-14T09:38:39.423Z,98634.22
2023-04-14T09:48:51.956Z,98626.31
2023-04-14T09:58:57.041Z,98627.50
2023-04-14T10:08:58.993Z,98614.38
2023-04-14T10:19:01.744Z,98594.09
2023-04-14T10:29:03.833Z,98579.91
2023-04-14T10:39:06.009Z,98575.28
2023-04-14T10:49:08.056Z,98558.28
2023-04-14T10:59:09.449Z,98545.28
2023-04-14T11:09:38.902Z,98529.16
2023-04-14T11:19:40.783Z,98526.66
2023-04-14T11:29:42.530Z,98515.28
2023-04-14T11:39:44.282Z,98524.00
2023-04-14T11:49:45.959Z,98512.38
2023-04-14T11:59:47.455Z,98518.28
2023-04-14T12:09:50.598Z,98495.50
2023-04-14T12:19:52.175Z,98493.03
2023-04-14T12:29:53.561Z,98478.75
2023-04-14T12:40:00.245Z,98473.66
2023-04-14T12:50:21.310Z,98465.31
2023-04-14T13:00:23.463Z,98454.09
2023-04-14T13:10:24.858Z,98447.50
2023-04-14T13:20:26.447Z,98430.63
2023-04-14T13:30:28.008Z,98423.50
2023-04-14T13:40:29.573Z,98430.41
2023-04-14T13:50:31.287Z,98408.22
2023-04-14T14:00:32.696Z,98413.03
2023-04-14T14:10:34.133Z,98412.81
2023-04-14T14:20:35.740Z,98395.94
2023-04-14T14:30:37.247Z,98387.25
2023-04-14T14:40:38.799Z,98389.13
2023-04-14T14:50:40.437Z,98372.72
2023-04-14T15:00:42.057Z,98363.66
2023-04-14T15:10:44.020Z,98364.25
2023-04-14T15:20:45.597Z,98355.81
2023-04-14T15:30:47.009Z,98358.63
2023-04-14T15:40:48.450Z,98357.06
2023-04-14T15:50:49.831Z,98343.09
2023-04-14T16:00:51.250Z,98350.50
2023-04-14T16:10:53.372Z,98343.56
2023-04-14T16:20:54.758Z,98347.44
2023-04-14T16:31:01.831Z,98346.94
2023-04-14T16:41:03.364Z,98344.13
2023-04-14T16:51:08.498Z,98347.09
2023-04-14T17:01:10.470Z,98340.31
2023-04-14T17:11:12.143Z,98332.91
2023-04-14T17:21:13.506Z,98340.38
2023-04-14T17:31:15.531Z,98346.25
2023-04-14T17:41:17.124Z,98347.47
2023-04-14T17:51:18.846Z,98348.31
2023-04-14T18:01:21.810Z,98346.28
2023-04-14T18:11:24.301Z,98354.66
2023-04-14T18:21:27.499Z,98369.25
2023-04-14T18:31:29.180Z,98379.66
2023-04-14T18:41:30.593Z,98383.47
2023-04-14T18:51:32.685Z,98399.66
2023-04-14T19:01:35.880Z,98417.75
2023-04-14T19:11:37.479Z,98426.13
2023-04-14T19:21:40.954Z,98432.38
2023-04-14T19:31:42.717Z,98432.03
2023-04-14T19:41:44.163Z,98432.69
2023-04-14T19:51:45.568Z,98431.94
2023-04-14T20:01:48.493Z,98442.97
2023-04-14T20:11:49.920Z,98440.94
2023-04-14T20:21:51.353Z,98442.41
2023-04-14T20:31:53.389Z,98450.31
2023-04-14T20:41:54.803Z,98439.19
2023-04-14T20:51:58.318Z,98452.00
2023-04-14T21:01:59.845Z,98446.25
2023-04-14T21:12:14.827Z,98445.66
2023-04-14T21:22:17.746Z,98458.31
2023-04-14T21:32:19.278Z,98457.47
2023-04-14T21:42:20.867Z,98461.44
2023-04-14T21:52:22.256Z,98458.75
2023-04-14T22:02:23.801Z,98451.34
2023-04-14T22:12:25.241Z,98456.56
2023-04-14T22:22:27.126Z,98461.31
2023-04-14T22:32:28.752Z,98451.81
2023-04-14T22:42:30.265Z,98465.44
2023-04-14T22:52:31.785Z,98456.78
2023-04-14T23:02:33.285Z,98459.72
2023-04-14T23:12:35.026Z,98458.53
2023-04-14T23:22:36.631Z,98474.25
2023-04-14T23:32:38.079Z,98469.69
2023-04-14T23:42:39.719Z,98464.34
2023-04-14T23:52:41.419Z,98460.25
